Time;durP1;ratioP1;P1;durP2;ratioP2;P2;SDS_P1;SDS_P2;PMS_P1;PMS_P2;Temp;Humidity;BMP_temperature;BMP_pressure;BME280_temperature;BME280_humidity;BME280_pressure;Samples;Min_cycle;Max_cycle;Signal;HPM_P1;HPM_P2
2023/06/20 00:00:20;;;;;;;7.45;4.63;;;21.80;99.90;;;;;;5055407;28;20108;-53
2023/06/20 00:02:46;;;;;;;6.88;5.32;;;21.60;99.90;;;;;;5033280;28;20088;-53
2023/06/20 00:05:11;;;;;;;6.65;4.75;;;21.30;99.90;;;;;;5015720;28;20048;-53
2023/06/20 00:07:37;;;;;;;7.68;5.53;;;21.10;99.90;;;;;;5046912;28;20560;-53
2023/06/20 00:10:03;;;;;;;8.38;4.97;;;21.20;99.90;;;;;;5054889;28;20408;-53
2023/06/20 00:12:29;;;;;;;7.20;5.22;;;21.20;99.90;;;;;;5054383;28;20083;-53
2023/06/20 00:14:55;;;;;;;7.53;5.35;;;21.30;99.90;;;;;;5038413;28;20033;-53
2023/06/20 00:17:21;;;;;;;7.43;5.38;;;21.30;99.90;;;;;;5032973;28;20043;-54
2023/06/20 00:19:47;;;;;;;11.02;5.55;;;21.20;99.90;;;;;;5054169;28;20115;-53
2023/06/20 00:22:12;;;;;;;7.90;4.93;;;21.20;99.90;;;;;;5051861;28;20481;-53
2023/06/20 00:24:38;;;;;;;9.10;4.82;;;21.30;99.90;;;;;;5050816;28;20112;-53
2023/06/20 00:27:04;;;;;;;7.57;4.88;;;21.20;99.90;;;;;;5053270;28;20033;-53
2023/06/20 00:29:30;;;;;;;7.68;4.97;;;21.30;99.90;;;;;;5049245;28;20096;-53
2023/06/20 00:31:55;;;;;;;8.40;4.97;;;21.30;99.90;;;;;;5053276;28;20381;-53
2023/06/20 00:34:22;;;;;;;5.78;3.95;;;21.40;99.90;;;;;;5053363;28;20031;-53
2023/06/20 00:36:47;;;;;;;7.63;4.72;;;21.40;99.90;;;;;;5049318;28;20025;-53
2023/06/20 00:39:13;;;;;;;6.35;4.45;;;21.40;99.90;;;;;;5052524;28;20052;-53
2023/06/20 00:41:39;;;;;;;5.68;4.28;;;21.50;99.90;;;;;;5054217;28;20088;-53
2023/06/20 00:44:05;;;;;;;6.43;4.53;;;21.40;99.90;;;;;;5050291;28;20017;-53
2023/06/20 00:46:37;;;;;;;7.65;4.55;;;21.40;99.90;;;;;;5053952;28;20036;-53
2023/06/20 00:49:05;;;;;;;6.05;4.43;;;21.50;99.90;;;;;;5052734;28;20029;-53
2023/06/20 00:51:33;;;;;;;8.10;4.88;;;21.40;99.90;;;;;;5051884;28;20080;-53
2023/06/20 00:53:59;;;;;;;6.05;4.53;;;21.40;99.90;;;;;;5053616;28;20500;-53
2023/06/20 00:56:25;;;;;;;6.95;4.00;;;21.40;99.90;;;;;;5049920;28;20036;-53
2023/06/20 00:58:52;;;;;;;5.55;4.30;;;21.40;99.90;;;;;;5051458;28;20035;-54
2023/06/20 01:01:17;;;;;;;6.88;5.00;;;21.30;99.90;;;;;;5047090;28;20025;-53
2023/06/20 01:03:46;;;;;;;6.43;4.68;;;21.30;99.90;;;;;;5034367;28;20103;-53
2023/06/20 01:06:45;;;;;;;8.82;4.45;;;21.30;99.90;;;;;;5048420;28;20045;-53
2023/06/20 01:09:38;;;;;;;7.03;4.88;;;21.30;99.90;;;;;;5050207;28;20182;-53
2023/06/20 01:12:03;;;;;;;8.43;5.00;;;21.30;99.90;;;;;;5050230;28;20072;-53
2023/06/20 01:15:00;;;;;;;7.78;5.05;;;21.20;99.90;;;;;;5047559;28;20499;-53
2023/06/20 01:18:04;;;;;;;7.20;4.78;;;21.20;99.90;;;;;;5050691;28;20033;-53
2023/06/20 01:20:53;;;;;;;7.18;4.72;;;21.20;99.90;;;;;;4994440;28;20045;-53
2023/06/20 01:23:32;;;;;;;6.25;4.93;;;21.20;99.90;;;;;;4996164;28;20089;-53
2023/06/20 01:26:05;;;;;;;6.90;5.00;;;21.20;99.90;;;;;;4994773;28;20046;-53
2023/06/20 01:28:53;;;;;;;6.88;5.13;;;21.20;99.90;;;;;;4994146;28;20106;-53
2023/06/20 01:31:32;;;;;;;7.90;5.07;;;21.20;99.90;;;;;;4996574;28;20117;-54
2023/06/20 01:34:14;;;;;;;7.32;5.45;;;21.30;99.90;;;;;;4999295;28;20105;-53
2023/06/20 01:36:42;;;;;;;7.05;4.70;;;21.30;99.90;;;;;;4995425;28;20553;-53
2023/06/20 01:39:24;;;;;;;8.15;5.05;;;21.30;99.90;;;;;;4997167;28;20029;-53
2023/06/20 01:41:53;;;;;;;4.82;4.32;;;21.30;99.90;;;;;;4997975;28;20050;-53
2023/06/20 01:44:21;;;;;;;5.88;4.38;;;21.30;99.90;;;;;;4914472;28;20042;-53
2023/06/20 01:46:49;;;;;;;7.35;5.15;;;21.30;99.90;;;;;;4997519;28;20042;-53
2023/06/20 01:49:16;;;;;;;8.52;4.57;;;21.20;99.90;;;;;;4995809;28;20041;-53
2023/06/20 01:51:42;;;;;;;7.82;4.80;;;;;;;;;;4995629;28;20426;-53
2023/06/20 01:54:10;;;;;;;5.72;4.28;;;21.10;99.90;;;;;;4995574;28;20037;-54
2023/06/20 01:56:37;;;;;;;5.65;4.07;;;;;;;;;;5015552;28;20037;-53
2023/06/20 01:59:04;;;;;;;6.15;4.70;;;21.00;99.90;;;;;;5048583;28;20037;-53
2023/06/20 02:01:31;;;;;;;7.20;4.60;;;20.70;99.90;;;;;;5047354;28;20462;-53
2023/06/20 02:03:59;;;;;;;5.47;4.25;;;20.80;99.90;;;;;;5052079;28;20040;-53
2023/06/20 02:06:25;;;;;;;7.28;4.35;;;20.80;99.90;;;;;;5051444;28;20044;-53
2023/06/20 02:08:53;;;;;;;6.43;4.53;;;21.10;99.90;;;;;;5047484;28;20053;-53
2023/06/20 02:11:21;;;;;;;6.43;4.57;;;20.80;99.90;;;;;;5048152;28;20040;-53
2023/06/20 02:13:49;;;;;;;10.88;4.50;;;20.90;99.90;;;;;;5049631;28;20031;-53
2023/06/20 02:16:17;;;;;;;7.07;4.32;;;20.90;99.90;;;;;;4983271;28;20040;-55
2023/06/20 02:18:43;;;;;;;6.82;4.70;;;20.90;99.90;;;;;;5048723;28;20024;-54
2023/06/20 02:21:19;;;;;;;9.82;4.70;;;20.80;99.90;;;;;;5051786;28;20037;-53
2023/06/20 02:23:48;;;;;;;7.13;4.18;;;20.80;99.90;;;;;;5033482;28;20028;-54
2023/06/20 02:26:18;;;;;;;5.78;4.18;;;20.80;99.90;;;;;;5049502;28;20037;-56
2023/06/20 02:28:49;;;;;;;6.80;4.35;;;20.80;99.90;;;;;;5015136;28;20191;-56
2023/06/20 02:31:21;;;;;;;4.80;3.90;;;20.80;99.90;;;;;;5048833;28;20389;-55
2023/06/20 02:33:54;;;;;;;6.07;4.22;;;20.70;99.90;;;;;;5047261;28;20040;-54
2023/06/20 02:36:25;;;;;;;9.77;4.93;;;20.70;99.90;;;;;;5031772;28;20040;-54
2023/06/20 02:38:57;;;;;;;7.87;4.83;;;20.70;99.90;;;;;;5054111;28;20044;-54
2023/06/20 02:41:26;;;;;;;7.18;4.53;;;20.70;99.90;;;;;;5048182;28;20293;-55
2023/06/20 02:43:52;;;;;;;8.95;5.13;;;20.70;99.90;;;;;;5049789;28;20032;-54
2023/06/20 02:46:31;;;;;;;7.50;4.25;;;;;;;;;;5048881;28;20495;-55
2023/06/20 02:49:19;;;;;;;11.57;5.35;;;;;;;;;;5052389;28;20025;-55
2023/06/20 02:51:55;;;;;;;10.57;4.82;;;;;;;;;;5049474;28;20125;-57
2023/06/20 02:54:26;;;;;;;9.45;4.95;;;;;;;;;;5050161;28;20527;-55
2023/06/20 02:56:53;;;;;;;12.10;5.53;;;;;;;;;;5050442;28;20419;-54
2023/06/20 02:59:21;;;;;;;10.43;5.82;;;;;;;;;;5052210;28;20052;-55
2023/06/20 03:01:48;;;;;;;9.52;5.25;;;;;;;;;;5040523;28;20036;-54
2023/06/20 03:04:16;;;;;;;7.90;4.68;;;;;;;;;;5045895;28;20035;-53
2023/06/20 03:06:43;;;;;;;9.15;6.18;;;;;;;;;;5050288;28;20039;-54
2023/06/20 03:09:10;;;;;;;9.60;5.30;;;;;;;;;;5046272;28;20053;-55
2023/06/20 03:11:36;;;;;;;9.63;5.50;;;;;;;;;;5046374;28;20029;-55
2023/06/20 03:14:03;;;;;;;10.15;6.28;;;;;;;;;;5052400;28;20024;-54
2023/06/20 03:16:31;;;;;;;9.48;5.50;;;;;;;;;;5052530;28;20102;-55
2023/06/20 03:18:56;;;;;;;10.13;5.22;;;20.70;99.90;;;;;;5053874;28;20068;-53
2023/06/20 03:21:23;;;;;;;9.25;6.07;;;20.70;99.90;;;;;;5049272;28;20137;-55
2023/06/20 03:23:49;;;;;;;8.60;5.13;;;20.70;99.90;;;;;;5036738;28;20095;-53
2023/06/20 03:26:15;;;;;;;7.07;5.18;;;20.70;99.90;;;;;;5053922;28;20518;-53
2023/06/20 03:28:40;;;;;;;9.57;5.68;;;20.70;99.90;;;;;;5035131;28;20033;-53
2023/06/20 03:31:06;;;;;;;8.20;5.13;;;20.70;99.90;;;;;;5020771;28;20114;-55
2023/06/20 03:33:32;;;;;;;14.95;6.15;;;20.40;99.90;;;;;;5038532;28;20377;-53
2023/06/20 03:35:59;;;;;;;9.77;5.88;;;20.20;99.90;;;;;;5054126;28;20044;-53
2023/06/20 03:38:25;;;;;;;10.00;5.80;;;20.10;99.90;;;;;;5052421;28;20049;-53
2023/06/20 03:40:51;;;;;;;10.75;6.45;;;20.00;99.90;;;;;;5034706;28;20408;-53
2023/06/20 03:43:17;;;;;;;7.57;5.45;;;19.80;99.90;;;;;;5052125;28;20449;-53
2023/06/20 03:45:43;;;;;;;7.78;5.63;;;19.70;99.90;;;;;;5047649;28;20119;-54
2023/06/20 03:48:09;;;;;;;8.00;5.25;;;19.80;99.90;;;;;;5036387;28;20116;-53
2023/06/20 03:50:34;;;;;;;10.52;4.80;;;19.80;99.90;;;;;;5049740;28;20362;-54
2023/06/20 03:53:00;;;;;;;6.95;4.88;;;19.90;99.90;;;;;;5052907;28;20028;-54
2023/06/20 03:55:26;;;;;;;8.10;4.63;;;19.90;99.90;;;;;;5053726;28;20025;-54
2023/06/20 03:57:52;;;;;;;7.95;4.55;;;19.80;99.90;;;;;;5053030;28;20021;-53
2023/06/20 04:00:17;;;;;;;6.85;4.85;;;19.80;99.90;;;;;;5032487;28;20044;-53
2023/06/20 04:02:46;;;;;;;6.78;5.03;;;;;;;;;;5046935;28;20048;-53
2023/06/20 04:05:12;;;;;;;8.82;5.47;;;20.20;99.90;;;;;;5050030;28;20120;-54
2023/06/20 04:07:42;;;;;;;8.93;5.50;;;20.50;99.90;;;;;;5050222;28;20416;-53
2023/06/20 04:10:11;;;;;;;8.32;5.07;;;20.70;99.90;;;;;;5054150;28;20033;-54
2023/06/20 04:12:38;;;;;;;10.88;5.55;;;20.80;99.90;;;;;;5052820;28;20441;-54
2023/06/20 04:15:05;;;;;;;7.63;5.03;;;20.80;99.90;;;;;;5053013;28;20033;-53
2023/06/20 04:17:31;;;;;;;6.80;4.75;;;20.90;99.90;;;;;;5052233;28;20510;-55
2023/06/20 04:19:56;;;;;;;7.90;5.50;;;21.00;99.90;;;;;;5035636;28;20124;-56
2023/06/20 04:22:26;;;;;;;7.88;5.65;;;21.00;99.90;;;;;;5039225;28;20039;-53
2023/06/20 04:24:53;;;;;;;8.65;5.55;;;21.10;99.90;;;;;;5050904;28;20116;-54
2023/06/20 04:27:19;;;;;;;8.07;5.45;;;21.20;99.90;;;;;;5049811;28;20462;-53
2023/06/20 04:29:44;;;;;;;6.53;5.65;;;21.30;99.90;;;;;;5052207;28;20110;-54
2023/06/20 04:32:10;;;;;;;10.02;5.60;;;21.40;99.90;;;;;;5051017;28;20144;-53
2023/06/20 04:34:36;;;;;;;8.77;5.82;;;21.50;99.90;;;;;;5052763;28;20119;-54
2023/06/20 04:37:01;;;;;;;11.23;6.20;;;21.60;99.90;;;;;;5052831;28;20381;-53
2023/06/20 04:39:29;;;;;;;12.18;6.18;;;21.80;99.90;;;;;;5016019;28;20130;-53
2023/06/20 04:41:55;;;;;;;9.55;6.10;;;21.80;99.90;;;;;;5052144;28;20428;-52
2023/06/20 04:44:21;;;;;;;10.70;6.82;;;21.80;99.90;;;;;;5014412;28;20040;-53
2023/06/20 04:46:46;;;;;;;11.07;6.00;;;21.90;99.90;;;;;;5052167;28;20091;-55
2023/06/20 04:49:13;;;;;;;8.93;6.55;;;22.00;99.90;;;;;;5033486;28;20136;-54
2023/06/20 04:51:40;;;;;;;9.25;6.30;;;22.00;99.90;;;;;;5054103;28;20473;-54
2023/06/20 04:54:07;;;;;;;9.20;6.20;;;22.00;99.90;;;;;;5050918;28;20540;-54
2023/06/20 04:56:40;;;;;;;7.20;5.55;;;22.10;99.90;;;;;;5050918;28;20040;-54
2023/06/20 04:59:08;;;;;;;8.43;5.38;;;22.20;99.90;;;;;;5032998;28;20080;-53
2023/06/20 05:01:34;;;;;;;8.52;6.13;;;22.10;99.90;;;;;;5052013;28;20033;-55
2023/06/20 05:04:03;;;;;;;9.13;6.40;;;22.20;99.90;;;;;;5050792;28;20036;-52
2023/06/20 05:06:29;;;;;;;11.27;5.88;;;22.40;99.90;;;;;;5019150;28;20127;-53
2023/06/20 05:08:55;;;;;;;8.23;6.13;;;22.40;99.90;;;;;;5048069;28;20056;-54
2023/06/20 05:11:21;;;;;;;9.82;6.03;;;22.60;99.90;;;;;;5036092;28;20041;-53
2023/06/20 05:13:46;;;;;;;8.48;6.18;;;22.60;99.90;;;;;;5050882;28;20441;-51
2023/06/20 05:16:12;;;;;;;7.55;5.95;;;22.50;99.90;;;;;;5033803;28;20034;-53
2023/06/20 05:18:38;;;;;;;10.27;6.35;;;22.60;99.90;;;;;;5030807;28;20033;-52
2023/06/20 05:21:04;;;;;;;7.60;5.72;;;22.60;99.90;;;;;;5033872;28;20047;-53
2023/06/20 05:23:30;;;;;;;8.35;5.65;;;22.90;99.90;;;;;;4999085;28;20061;-52
2023/06/20 05:25:56;;;;;;;7.68;5.55;;;22.80;99.90;;;;;;5000479;28;20093;-53
2023/06/20 05:28:22;;;;;;;7.85;5.70;;;;;;;;;;5003802;28;20057;-52
2023/06/20 05:30:48;;;;;;;6.38;5.10;;;;;;;;;;5016668;28;20052;-52
2023/06/20 05:33:15;;;;;;;7.55;5.50;;;;;;;;;;5023464;28;20053;-52
2023/06/20 05:35:43;;;;;;;8.18;5.80;;;;;;;;;;5026111;28;20049;-53
2023/06/20 05:38:09;;;;;;;10.45;5.32;;;;;;;;;;5027575;28;20048;-52
2023/06/20 05:40:35;;;;;;;7.22;5.47;;;23.80;99.90;;;;;;5000763;28;20081;-52
2023/06/20 05:43:01;;;;;;;8.77;5.20;;;23.90;99.90;;;;;;5029526;28;20399;-53
2023/06/20 05:45:26;;;;;;;10.73;6.00;;;24.10;99.90;;;;;;5029747;28;20042;-52
2023/06/20 05:47:52;;;;;;;8.10;5.78;;;24.10;99.90;;;;;;5047222;28;20135;-53
2023/06/20 05:50:18;;;;;;;6.63;5.45;;;24.20;99.90;;;;;;5050038;28;20098;-52
2023/06/20 05:52:43;;;;;;;6.53;5.10;;;24.40;99.90;;;;;;5050073;28;20568;-53
2023/06/20 05:55:09;;;;;;;7.57;5.43;;;;;;;;;;5048322;28;20030;-52
2023/06/20 05:57:37;;;;;;;7.95;5.38;;;;;;;;;;5049420;28;20031;-52
2023/06/20 06:00:11;;;;;;;8.43;4.90;;;;;;;;;;5049962;28;20029;-52
2023/06/20 06:02:37;;;;;;;8.98;5.80;;;;;;;;;;5031847;28;20484;-52
2023/06/20 06:05:04;;;;;;;6.60;5.03;;;;;;;;;;5050262;28;20477;-52
2023/06/20 06:07:30;;;;;;;6.75;5.38;;;;;;;;;;5051801;28;20048;-52
2023/06/20 06:09:56;;;;;;;8.82;5.82;;;24.90;99.90;;;;;;5048024;28;20028;-52
2023/06/20 06:12:22;;;;;;;7.88;5.90;;;;;;;;;;5049692;28;20029;-53
2023/06/20 06:14:50;;;;;;;7.78;5.30;;;25.10;99.90;;;;;;5043165;28;20532;-53
2023/06/20 06:17:17;;;;;;;7.50;5.57;;;;;;;;;;5050220;28;20050;-52
2023/06/20 06:19:44;;;;;;;7.85;5.85;;;25.20;99.90;;;;;;5049826;28;20041;-52
2023/06/20 06:22:10;;;;;;;6.88;5.35;;;25.30;99.90;;;;;;5038498;28;20362;-52
2023/06/20 06:24:36;;;;;;;7.22;5.68;;;;;;;;;;5049499;28;20033;-52
2023/06/20 06:27:04;;;;;;;12.35;6.35;;;;;;;;;;5049552;28;20037;-52
2023/06/20 06:29:29;;;;;;;8.00;5.43;;;25.70;99.90;;;;;;5052867;28;20037;-53
2023/06/20 06:31:58;;;;;;;8.38;5.38;;;25.90;99.90;;;;;;5032503;28;20029;-52
2023/06/20 06:34:26;;;;;;;8.95;5.43;;;25.90;99.90;;;;;;5050818;28;20033;-52
2023/06/20 06:36:52;;;;;;;9.10;6.07;;;;;;;;;;5030182;28;20033;-51
2023/06/20 06:39:19;;;;;;;7.40;5.32;;;;;;;;;;5052236;28;20040;-51
2023/06/20 06:41:51;;;;;;;8.10;6.18;;;;;;;;;;5050503;28;20064;-51
2023/06/20 06:44:18;;;;;;;9.35;5.63;;;26.20;99.90;;;;;;5050866;28;20388;-51
2023/06/20 06:46:44;;;;;;;8.05;5.75;;;26.20;99.90;;;;;;5052507;28;20419;-51
2023/06/20 06:49:10;;;;;;;6.47;5.00;;;26.30;99.90;;;;;;5049520;28;20025;-51
2023/06/20 06:51:40;;;;;;;7.80;5.75;;;;;;;;;;5055601;28;20051;-51
2023/06/20 06:54:06;;;;;;;7.82;5.68;;;;;;;;;;5052201;28;20357;-52
2023/06/20 06:56:32;;;;;;;7.22;5.63;;;;;;;;;;5055489;28;20029;-52
2023/06/20 06:59:00;;;;;;;8.30;5.68;;;;;;;;;;5053674;28;20025;-51
2023/06/20 07:01:28;;;;;;;7.38;5.97;;;;;;;;;;5051407;28;20032;-53
2023/06/20 07:03:54;;;;;;;10.20;5.40;;;;;;;;;;5052239;28;20021;-51
2023/06/20 07:06:20;;;;;;;9.70;5.68;;;;;;;;;;5052577;28;20139;-51
2023/06/20 07:08:46;;;;;;;6.53;5.05;;;26.90;99.90;;;;;;5056863;28;20063;-51
2023/06/20 07:11:12;;;;;;;7.93;5.65;;;26.90;99.90;;;;;;5044810;28;20050;-51
2023/06/20 07:13:38;;;;;;;9.05;4.82;;;;;;;;;;5053896;28;20350;-51
2023/06/20 07:16:04;;;;;;;6.13;5.18;;;27.30;99.90;;;;;;5053797;28;20485;-51
2023/06/20 07:18:30;;;;;;;6.95;5.38;;;27.30;99.90;;;;;;5052583;28;20048;-52
2023/06/20 07:20:59;;;;;;;7.20;4.95;;;;;;;;;;5054587;28;20397;-51
2023/06/20 07:23:25;;;;;;;9.15;5.93;;;;;;;;;;5054806;28;20035;-51
2023/06/20 07:25:51;;;;;;;6.88;5.10;;;;;;;;;;5047159;28;20033;-51
2023/06/20 07:28:17;;;;;;;9.13;5.10;;;27.50;99.90;;;;;;5054050;28;20037;-52
2023/06/20 07:30:43;;;;;;;9.07;4.93;;;27.60;99.90;;;;;;5035379;28;20087;-51
2023/06/20 07:33:09;;;;;;;8.32;5.60;;;27.70;99.90;;;;;;5053644;28;20029;-51
2023/06/20 07:35:35;;;;;;;8.40;5.47;;;27.90;99.90;;;;;;5048775;28;20147;-51
2023/06/20 07:38:00;;;;;;;9.55;5.90;;;27.80;99.90;;;;;;5053253;28;20060;-51
2023/06/20 07:40:26;;;;;;;8.30;5.45;;;28.00;99.90;;;;;;5051966;28;20358;-52
2023/06/20 07:42:52;;;;;;;9.82;5.28;;;28.00;99.90;;;;;;5051494;28;20029;-51
2023/06/20 07:45:18;;;;;;;8.30;4.75;;;28.20;99.90;;;;;;5053569;28;20059;-51
2023/06/20 07:47:43;;;;;;;6.88;5.22;;;28.10;99.90;;;;;;5053258;28;20040;-51
2023/06/20 07:50:10;;;;;;;6.05;5.30;;;28.40;99.90;;;;;;5051900;28;20032;-51
2023/06/20 07:52:36;;;;;;;12.05;5.20;;;28.60;99.90;;;;;;5052123;28;20042;-51
2023/06/20 07:55:03;;;;;;;11.77;5.00;;;28.50;99.90;;;;;;5054667;28;20041;-52
2023/06/20 07:57:29;;;;;;;11.05;4.90;;;28.70;99.90;;;;;;5053947;28;20098;-51
2023/06/20 07:59:55;;;;;;;7.10;5.00;;;28.90;99.90;;;;;;5023288;28;20041;-51
2023/06/20 08:02:21;;;;;;;6.57;4.80;;;28.80;99.90;;;;;;5033818;28;20040;-51
2023/06/20 08:04:47;;;;;;;6.90;4.82;;;29.00;99.90;;;;;;5053244;28;20122;-51
2023/06/20 08:07:13;;;;;;;7.53;5.40;;;28.90;99.90;;;;;;5053149;28;20045;-51
2023/06/20 08:09:39;;;;;;;6.85;5.35;;;29.20;99.90;;;;;;5050287;28;20044;-51
2023/06/20 08:12:05;;;;;;;7.45;5.32;;;29.20;99.90;;;;;;5053270;28;20040;-52
2023/06/20 08:14:31;;;;;;;5.88;4.85;;;29.30;99.90;;;;;;5054533;28;20037;-51
2023/06/20 08:16:57;;;;;;;8.02;4.85;;;29.40;99.90;;;;;;5050358;28;20381;-51
2023/06/20 08:19:22;;;;;;;8.85;5.47;;;29.40;99.90;;;;;;5051154;28;20047;-51
2023/06/20 08:21:48;;;;;;;8.15;5.38;;;29.60;99.90;;;;;;5054857;28;20171;-51
2023/06/20 08:24:14;;;;;;;9.52;5.38;;;29.50;99.90;;;;;;5051464;28;20037;-51
2023/06/20 08:26:39;;;;;;;7.85;5.13;;;29.70;99.90;;;;;;5047561;28;20041;-51
2023/06/20 08:29:08;;;;;;;6.43;5.53;;;29.60;99.90;;;;;;5048959;28;20490;-50
2023/06/20 08:31:36;;;;;;;5.97;4.65;;;29.60;99.90;;;;;;5049862;28;20477;-51
2023/06/20 08:34:03;;;;;;;6.18;4.90;;;29.80;99.90;;;;;;5052730;28;20036;-51
2023/06/20 08:36:30;;;;;;;9.13;4.95;;;29.80;99.90;;;;;;5053867;28;20044;-51
2023/06/20 08:38:55;;;;;;;7.80;5.00;;;30.10;99.90;;;;;;5049525;28;20059;-51
2023/06/20 08:41:25;;;;;;;7.38;4.43;;;30.00;99.90;;;;;;5052724;28;20057;-51
2023/06/20 08:43:51;;;;;;;7.20;5.15;;;30.40;99.90;;;;;;5051087;28;20028;-51
2023/06/20 08:46:16;;;;;;;8.18;5.25;;;30.00;99.90;;;;;;5054038;28;20036;-51
2023/06/20 08:48:42;;;;;;;6.90;5.15;;;30.30;99.90;;;;;;5050452;28;20033;-51
2023/06/20 08:51:12;;;;;;;6.30;4.78;;;30.60;99.90;;;;;;5035311;28;20047;-51
2023/06/20 08:53:39;;;;;;;7.53;5.10;;;30.80;99.90;;;;;;5051694;28;20484;-51
2023/06/20 08:56:05;;;;;;;6.75;4.63;;;30.60;99.90;;;;;;5052140;28;20025;-51
2023/06/20 08:58:32;;;;;;;4.93;4.38;;;30.80;99.90;;;;;;5051487;28;20468;-51
2023/06/20 09:00:58;;;;;;;6.13;4.68;;;30.90;99.90;;;;;;5046175;28;20499;-51
2023/06/20 09:03:24;;;;;;;6.88;4.97;;;30.90;99.90;;;;;;5044564;28;20043;-51
2023/06/20 09:05:49;;;;;;;6.10;4.50;;;30.90;99.90;;;;;;5053912;28;20024;-51
2023/06/20 09:08:16;;;;;;;5.55;4.78;;;31.20;99.90;;;;;;5050761;28;20060;-52
2023/06/20 09:10:42;;;;;;;7.10;4.57;;;31.20;99.90;;;;;;5049878;28;20048;-51
2023/06/20 09:13:10;;;;;;;7.72;5.30;;;31.20;99.90;;;;;;5046702;28;20045;-51
2023/06/20 09:15:38;;;;;;;6.38;5.20;;;31.30;99.90;;;;;;5052444;28;20029;-51
2023/06/20 09:18:06;;;;;;;6.30;4.68;;;31.20;99.90;;;;;;5050026;28;20460;-51
2023/06/20 09:20:32;;;;;;;5.72;4.53;;;31.20;99.90;;;;;;5049977;28;20037;-54
2023/06/20 09:22:59;;;;;;;7.43;4.60;;;31.50;99.90;;;;;;5047489;28;20033;-54
2023/06/20 09:25:26;;;;;;;5.63;4.35;;;;;;;;;;5015578;28;20087;-53
2023/06/20 09:27:53;;;;;;;7.68;5.30;;;31.90;99.90;;;;;;5051467;28;20037;-55
2023/06/20 09:30:19;;;;;;;6.10;4.60;;;32.00;99.90;;;;;;5047706;28;20461;-55
2023/06/20 09:32:45;;;;;;;6.90;4.88;;;32.10;99.90;;;;;;5049590;28;20033;-52
2023/06/20 09:35:14;;;;;;;6.38;5.10;;;32.30;99.90;;;;;;5029144;28;20041;-56
2023/06/20 09:37:51;;;;;;;6.55;4.68;;;32.00;99.90;;;;;;5035268;28;20083;-54
2023/06/20 09:40:19;;;;;;;6.25;4.38;;;32.10;99.90;;;;;;5042278;28;20396;-52
2023/06/20 09:42:46;;;;;;;6.00;4.50;;;32.30;99.90;;;;;;5047328;28;20041;-51
2023/06/20 09:45:14;;;;;;;9.23;5.00;;;32.20;99.90;;;;;;5041890;28;20021;-54
2023/06/20 09:47:42;;;;;;;7.18;4.53;;;32.30;99.90;;;;;;5043771;28;20135;-53
2023/06/20 09:50:19;;;;;;;5.63;4.82;;;32.50;99.90;;;;;;5039469;28;20033;-51
2023/06/20 09:53:09;;;;;;;6.40;4.60;;;32.30;99.90;;;;;;5039584;28;20047;-51
2023/06/20 09:55:36;;;;;;;6.22;4.55;;;32.40;99.90;;;;;;5046590;28;20064;-50
2023/06/20 09:58:04;;;;;;;6.15;4.65;;;32.40;99.90;;;;;;5046745;28;20419;-50
2023/06/20 10:00:31;;;;;;;8.27;5.22;;;32.40;99.90;;;;;;5047005;28;20029;-50
2023/06/20 10:03:00;;;;;;;7.20;4.90;;;32.50;99.90;;;;;;5006957;28;20065;-50
2023/06/20 10:05:28;;;;;;;5.45;4.70;;;32.90;99.90;;;;;;5043269;28;20033;-53
2023/06/20 10:08:00;;;;;;;5.95;4.43;;;;;;;;;;5036839;28;20150;-50
2023/06/20 10:10:26;;;;;;;5.55;4.38;;;33.40;99.90;;;;;;5049391;28;20108;-50
2023/06/20 10:12:54;;;;;;;6.63;4.97;;;33.40;99.90;;;;;;5049664;28;20115;-52
2023/06/20 10:15:21;;;;;;;8.23;5.07;;;33.30;99.90;;;;;;5052106;28;20029;-51
2023/06/20 10:17:47;;;;;;;7.28;4.88;;;33.30;99.90;;;;;;5050335;28;20090;-52
2023/06/20 10:20:34;;;;;;;5.60;4.65;;;33.20;99.90;;;;;;5048589;28;20033;-51
2023/06/20 10:23:09;;;;;;;5.68;4.20;;;33.00;99.90;;;;;;4989992;28;20045;-51
2023/06/20 10:25:58;;;;;;;4.50;4.05;;;32.80;99.90;;;;;;4989699;28;20146;-52
2023/06/20 10:28:24;;;;;;;5.25;4.43;;;;;;;;;;4965364;28;20087;-51
2023/06/20 10:30:53;;;;;;;6.65;4.18;;;;;;;;;;4990491;28;20049;-51
2023/06/20 10:33:36;;;;;;;5.75;4.32;;;;;;;;;;4990520;28;20549;-51
2023/06/20 10:36:06;;;;;;;6.40;4.10;;;;;;;;;;4990437;28;20045;-51
2023/06/20 10:38:33;;;;;;;12.18;5.10;;;;;;;;;;4991005;28;20213;-51
2023/06/20 10:41:08;;;;;;;7.72;4.78;;;;;;;;;;4989674;28;20129;-51
2023/06/20 10:43:55;;;;;;;6.00;5.05;;;;;;;;;;4948659;28;20043;-51
2023/06/20 10:46:22;;;;;;;6.38;4.50;;;;;;;;;;4989786;28;20493;-51
2023/06/20 10:48:48;;;;;;;7.18;4.75;;;;;;;;;;4990569;28;20042;-51
2023/06/20 10:51:14;;;;;;;5.93;4.70;;;;;;;;;;4990364;28;20034;-51
2023/06/20 10:53:40;;;;;;;7.40;4.03;;;;;;;;;;4985309;28;20042;-52
2023/06/20 10:56:06;;;;;;;6.72;4.82;;;;;;;;;;4973990;28;20050;-51
2023/06/20 10:58:34;;;;;;;6.93;4.70;;;;;;;;;;4991015;28;20045;-52
2023/06/20 11:01:00;;;;;;;6.22;4.28;;;;;;;;;;5040394;28;20037;-52
2023/06/20 11:03:26;;;;;;;5.05;3.85;;;;;;;;;;5048085;28;20044;-53
2023/06/20 11:05:56;;;;;;;6.25;4.40;;;;;;;;;;5050154;28;20021;-52
2023/06/20 11:08:23;;;;;;;5.15;3.97;;;;;;;;;;5029763;28;20505;-52
2023/06/20 11:10:49;;;;;;;5.78;4.57;;;;;;;;;;5049984;28;20021;-51
2023/06/20 11:13:15;;;;;;;7.03;4.72;;;;;;;;;;5049389;28;20053;-51
2023/06/20 11:15:41;;;;;;;5.50;4.20;;;;;;;;;;5044055;28;20428;-52
2023/06/20 11:18:08;;;;;;;5.70;4.07;;;;;;;;;;5049931;28;20453;-51
2023/06/20 11:20:36;;;;;;;5.45;4.25;;;;;;;;;;5050014;28;20472;-51
2023/06/20 11:23:04;;;;;;;6.78;4.70;;;;;;;;;;5049331;28;20511;-52
2023/06/20 11:25:31;;;;;;;5.88;4.18;;;;;;;;;;5049683;28;20017;-52
2023/06/20 11:28:08;;;;;;;5.63;4.05;;;34.30;99.90;;;;;;5049756;28;20127;-52
2023/06/20 11:30:37;;;;;;;7.03;4.28;;;34.20;99.90;;;;;;5047560;28;20101;-53
2023/06/20 11:33:11;;;;;;;6.68;4.57;;;34.40;99.90;;;;;;5050076;28;20561;-52
2023/06/20 11:35:54;;;;;;;5.97;3.95;;;34.60;99.90;;;;;;5013483;28;20041;-54
2023/06/20 11:38:23;;;;;;;6.93;4.85;;;35.00;99.90;;;;;;5050469;28;20053;-51
2023/06/20 11:41:06;;;;;;;8.82;4.20;;;35.20;99.90;;;;;;5052291;28;20079;-50
2023/06/20 11:43:42;;;;;;;7.60;4.32;;;35.10;99.90;;;;;;5053751;28;20386;-51
2023/06/20 11:46:09;;;;;;;6.13;4.30;;;;;;;;;;5051332;28;20387;-50
2023/06/20 11:48:35;;;;;;;6.32;4.63;;;35.80;99.90;;;;;;5052637;28;20020;-55
2023/06/20 11:51:02;;;;;;;4.68;4.18;;;36.00;99.90;;;;;;5054113;28;20024;-53
2023/06/20 11:53:32;;;;;;;7.65;5.00;;;35.60;99.90;;;;;;5053794;28;20025;-52
2023/06/20 11:56:02;;;;;;;5.18;3.72;;;35.50;99.90;;;;;;5045322;28;20025;-50
2023/06/20 11:58:35;;;;;;;7.38;4.55;;;34.60;99.90;;;;;;5052666;28;20401;-51
2023/06/20 12:01:04;;;;;;;5.68;4.57;;;34.40;99.90;;;;;;5030643;28;20123;-51
2023/06/20 12:03:34;;;;;;;14.80;5.35;;;34.30;99.90;;;;;;5017513;28;20477;-48
2023/06/20 12:05:59;;;;;;;10.20;5.35;;;34.50;99.80;;;;;;5052787;28;20057;-50
2023/06/20 12:08:34;;;;;;;6.15;4.85;;;34.80;99.80;;;;;;5028877;28;20081;-51
2023/06/20 12:11:02;;;;;;;5.75;4.80;;;34.90;99.80;;;;;;5052431;28;20025;-52
2023/06/20 12:13:28;;;;;;;5.72;4.53;;;35.10;99.90;;;;;;5052458;28;20036;-52
2023/06/20 12:15:55;;;;;;;8.88;5.05;;;34.90;99.70;;;;;;5049165;28;20182;-50
2023/06/20 12:18:21;;;;;;;6.05;4.47;;;34.40;99.20;;;;;;5050103;28;20035;-49
2023/06/20 12:20:46;;;;;;;5.35;4.60;;;34.30;99.00;;;;;;5052028;28;20127;-52
2023/06/20 12:23:13;;;;;;;5.90;4.03;;;34.80;99.90;;;;;;5032902;28;20439;-52
2023/06/20 12:25:38;;;;;;;4.75;3.80;;;35.10;99.90;;;;;;5050728;28;20025;-51
2023/06/20 12:28:04;;;;;;;4.38;3.55;;;34.80;98.90;;;;;;5051498;28;20051;-50
2023/06/20 12:30:31;;;;;;;5.00;3.88;;;34.80;98.10;;;;;;5051988;28;20068;-49
2023/06/20 12:32:58;;;;;;;4.90;3.72;;;35.10;97.80;;;;;;5035445;28;20045;-50
2023/06/20 12:35:26;;;;;;;5.57;4.25;;;;;;;;;;5053334;28;20047;-51
2023/06/20 12:37:51;;;;;;;5.43;4.68;;;35.90;99.90;;;;;;5049333;28;20083;-52
2023/06/20 12:40:17;;;;;;;5.30;4.43;;;36.10;99.90;;;;;;5048312;28;20037;-49
2023/06/20 12:42:43;;;;;;;8.98;3.05;;;36.10;99.90;;;;;;5035922;28;20041;-50
2023/06/20 12:45:12;;;;;;;7.05;4.70;;;35.20;99.90;;;;;;5054435;28;20029;-50
2023/06/20 12:47:38;;;;;;;4.80;4.10;;;34.60;97.50;;;;;;5048620;28;20049;-51
2023/06/20 12:50:05;;;;;;;4.75;4.03;;;34.90;98.00;;;;;;5050609;28;20033;-50
2023/06/20 12:52:31;;;;;;;4.93;3.92;;;35.00;97.30;;;;;;5009666;28;20117;-50
2023/06/20 12:55:00;;;;;;;6.15;5.55;;;35.20;96.60;;;;;;5051188;28;20073;-48
2023/06/20 12:57:26;;;;;;;7.20;4.30;;;;;;;;;;5051808;28;20388;-51
2023/06/20 12:59:52;;;;;;;5.30;4.13;;;;;;;;;;5048982;28;20025;-50
2023/06/20 13:02:20;;;;;;;4.95;3.80;;;;;;;;;;5052052;28;20039;-49
2023/06/20 13:04:46;;;;;;;5.15;4.07;;;35.20;99.00;;;;;;5053726;28;20485;-49
2023/06/20 13:07:12;;;;;;;5.65;4.28;;;35.40;99.80;;;;;;5048707;28;20041;-51
2023/06/20 13:09:38;;;;;;;4.47;3.58;;;35.30;98.90;;;;;;5050875;28;20112;-51
2023/06/20 13:12:05;;;;;;;5.43;3.90;;;35.00;97.70;;;;;;5053531;28;20036;-49
2023/06/20 13:14:31;;;;;;;6.88;4.60;;;35.10;98.20;;;;;;5042980;28;20033;-50